Henry, Virginia
Current Conditions -  °F | °C
As of 7:35 PM on Monday 22 Dec 2014 (Local Time) from KMTV Reporting Station
Haze Haze  
Wind Chill: 36°   Ceiling: 400
Heat Index: 36°   Visibility: 4mi
Dew Point: 36°   Wind: 0mph
Humidity: 100%   Direction: NA
Pressure: 30.11"   Gusts: NA
Location:  36.83°N, 79.99°W
Report Text: KMTV 230035Z AUTO 00000KT 4SM BR OVC004 02/02 A3011 RMK AO2 T00210021
Loading
Personal Weather Stations






























Interactive Weather Map New forecast layout! Learn more

10-Day Weather Forecast

Advertisements
Track Severe Weather on mobile